Time;durP1;ratioP1;P1;durP2;ratioP2;P2;SDS_P1;SDS_P2;PMS_P1;PMS_P2;Temp;Humidity;BMP_temperature;BMP_pressure;BME280_temperature;BME280_humidity;BME280_pressure;Samples;Min_cycle;Max_cycle;Signal;HPM_P1;HPM_P2
2021/06/06 00:02:17;;;;;;;7.28;4.05;;;;;;;23.51;36.42;99284.76;1725126;80;20987;-34
2021/06/06 00:04:44;;;;;;;11.12;5.20;;;;;;;23.50;36.54;99284.39;1753237;80;21090;-33
2021/06/06 00:07:12;;;;;;;11.05;4.58;;;;;;;23.46;36.50;99277.63;1753475;80;21070;-33
2021/06/06 00:09:41;;;;;;;9.55;4.97;;;;;;;23.44;36.51;99274.24;1729947;80;21342;-33
2021/06/06 00:12:09;;;;;;;10.95;4.78;;;;;;;23.43;36.50;99275.22;1747799;80;22129;-33
2021/06/06 00:14:38;;;;;;;12.03;5.20;;;;;;;23.43;36.43;99276.05;1721485;81;21509;-33
2021/06/06 00:17:09;;;;;;;6.40;4.20;;;;;;;23.44;36.41;99271.55;1757188;80;21038;-33
2021/06/06 00:19:37;;;;;;;8.55;4.78;;;;;;;23.43;36.33;99275.22;1753736;80;21117;-33
2021/06/06 00:22:04;;;;;;;10.58;3.83;;;;;;;23.41;36.30;99274.52;1753644;80;21015;-34
2021/06/06 00:24:34;;;;;;;7.65;4.50;;;;;;;23.37;36.21;99269.42;1756875;80;21577;-33
2021/06/06 00:27:02;;;;;;;9.75;4.42;;;;;;;23.36;36.21;99269.06;1729515;82;21064;-33
2021/06/06 00:29:28;;;;;;;7.92;4.35;;;;;;;23.34;36.19;99272.39;1739822;80;21042;-33
2021/06/06 00:31:55;;;;;;;6.95;4.10;;;;;;;23.31;36.31;99274.01;1746368;80;21037;-33
2021/06/06 00:34:23;;;;;;;10.20;4.67;;;;;;;23.28;36.34;99268.91;1746711;80;21571;-33
2021/06/06 00:36:51;;;;;;;8.45;4.30;;;;;;;23.26;36.30;99272.24;1677061;82;21173;-33
2021/06/06 00:39:17;;;;;;;6.05;3.80;;;;;;;23.24;36.34;99268.86;1723681;81;21078;-33
2021/06/06 00:41:46;;;;;;;8.18;4.47;;;;;;;23.24;36.36;99271.54;1724523;81;21055;-33
2021/06/06 00:44:13;;;;;;;5.85;4.75;;;;;;;23.25;36.43;99272.38;1687600;83;21588;-33
2021/06/06 00:46:40;;;;;;;5.42;4.10;;;;;;;23.22;36.47;99269.97;1742435;80;20987;-33
2021/06/06 00:49:08;;;;;;;10.68;4.80;;;;;;;23.21;36.54;99272.31;1702559;81;21127;-33
2021/06/06 00:51:51;;;;;;;7.22;4.25;;;;;;;23.19;36.54;99263.90;1728390;81;21074;-33
2021/06/06 00:54:29;;;;;;;6.67;4.40;;;;;;;23.21;36.56;99266.95;1758338;80;21172;-33
2021/06/06 00:57:04;;;;;;;5.87;3.92;;;;;;;23.22;36.64;99264.60;1697012;81;21070;-33
2021/06/06 00:59:35;;;;;;;4.50;3.65;;;;;;;23.21;36.75;99266.45;1701699;83;21290;-33
2021/06/06 01:02:04;;;;;;;9.93;4.10;;;;;;;23.18;36.79;99262.22;1740571;81;22145;-33
2021/06/06 01:04:33;;;;;;;10.38;4.40;;;;;;;23.18;36.87;99264.03;1741958;82;21035;-34
2021/06/06 01:07:03;;;;;;;5.15;4.28;;;;;;;23.18;36.92;99264.03;1745945;81;21083;-34
2021/06/06 01:09:30;;;;;;;6.03;4.03;;;;;;;23.15;36.96;99263.84;1745765;81;21023;-33
2021/06/06 01:12:15;;;;;;;6.75;3.95;;;;;;;23.11;37.03;99260.23;1745928;81;21039;-34
2021/06/06 01:14:52;;;;;;;8.13;3.75;;;;;;;23.07;37.04;99259.66;1745789;81;22372;-33
2021/06/06 01:18:00;;;;;;;8.58;3.75;;;;;;;23.02;37.22;99255.68;1735806;81;21444;-33
2021/06/06 01:20:58;;;;;;;7.05;4.40;;;;;;;22.97;37.27;99252.06;1744499;81;21403;-33
2021/06/06 01:23:44;;;;;;;8.38;3.65;;;;;;;22.94;37.25;99256.36;1701797;82;21045;-33
2021/06/06 01:26:28;;;;;;;7.05;4.30;;;;;;;22.92;37.27;99255.16;1744412;81;21118;-33
2021/06/06 01:29:19;;;;;;;5.33;2.98;;;;;;;22.93;37.16;99243.45;1745440;81;22181;-33
2021/06/06 01:31:51;;;;;;;9.75;3.98;;;;;;;22.96;37.18;99245.86;1737669;81;21079;-33
2021/06/06 01:34:18;;;;;;;8.95;4.25;;;;;;;22.98;37.20;99241.66;1733258;81;21071;-33
2021/06/06 01:36:49;;;;;;;5.08;3.50;;;;;;;22.96;37.24;99244.52;1745770;81;21071;-34
2021/06/06 01:39:25;;;;;;;6.60;3.50;;;;;;;22.96;37.23;99243.17;1744688;81;21640;-33
2021/06/06 01:41:59;;;;;;;9.83;3.77;;;;;;;22.97;37.20;99249.38;1744652;81;21070;-34
2021/06/06 01:44:30;;;;;;;8.38;3.45;;;;;;;22.98;37.29;99259.11;1739434;81;20942;-34
2021/06/06 01:47:03;;;;;;;10.45;3.70;;;;;;;22.98;37.32;99261.79;1720672;82;21052;-33
2021/06/06 01:49:30;;;;;;;11.65;4.17;;;;;;;22.96;37.50;99261.95;1733480;81;21066;-33
2021/06/06 01:52:01;;;;;;;16.45;3.72;;;;;;;22.96;37.74;99259.28;1733902;81;21047;-33
2021/06/06 01:54:32;;;;;;;7.90;3.60;;;;;;;22.97;37.90;99259.61;1728448;81;21194;-33
2021/06/06 01:57:00;;;;;;;8.55;3.95;;;;;;;23.00;38.02;99259.34;1726323;81;21003;-33
2021/06/06 01:59:39;;;;;;;8.30;3.72;;;;;;;23.03;37.96;99260.88;1740490;80;21007;-33
2021/06/06 02:02:06;;;;;;;7.40;3.10;;;;;;;23.05;38.14;99255.38;1714232;82;21035;-33
2021/06/06 02:04:34;;;;;;;4.75;3.10;;;;;;;23.07;38.07;99254.80;1714202;81;21077;-33
2021/06/06 02:07:24;;;;;;;8.60;3.92;;;;;;;23.09;38.08;99258.19;1693408;82;21577;-33
2021/06/06 02:10:09;;;;;;;7.55;3.70;;;;;;;23.11;38.15;99258.88;1740516;80;21541;-33
2021/06/06 02:12:39;;;;;;;48.05;15.88;;;;;;;23.13;38.17;99262.27;1733549;80;21511;-35
2021/06/06 02:15:24;;;;;;;31.93;11.97;;;;;;;23.12;38.17;99259.25;1735487;80;21168;-35
2021/06/06 02:17:56;;;;;;;22.10;7.92;;;;;;;23.13;38.27;99258.24;1697726;81;20986;-36
2021/06/06 02:20:30;;;;;;;14.05;6.35;;;;;;;23.14;38.46;99259.95;1709513;82;21090;-35
2021/06/06 02:22:57;;;;;;;10.25;6.35;;;;;;;23.15;38.51;99258.98;1701014;82;20952;-35
2021/06/06 02:25:24;;;;;;;11.40;6.45;;;;;;;23.15;38.56;99262.50;1708207;82;21078;-35
2021/06/06 02:28:21;;;;;;;12.35;6.30;;;;;;;23.15;38.62;99256.30;1740588;80;21070;-35
2021/06/06 02:31:15;;;;;;;10.50;6.07;;;;;;;23.16;38.63;99257.97;1740923;80;21119;-35
2021/06/06 02:34:15;;;;;;;10.35;6.17;;;;;;;23.17;38.64;99248.94;1716529;81;21556;-35
2021/06/06 02:36:53;;;;;;;12.73;6.45;;;;;;;23.17;38.75;99258.34;1711276;81;21022;-35
2021/06/06 02:39:28;;;;;;;10.25;5.87;;;;;;;23.16;38.76;99254.78;1687397;80;21038;-35
2021/06/06 02:42:05;;;;;;;10.40;5.80;;;;;;;23.18;38.84;99254.64;1690904;82;21113;-35
2021/06/06 02:44:52;;;;;;;19.07;6.05;;;;;;;23.18;38.86;99257.33;1705498;80;21045;-35
2021/06/06 02:47:23;;;;;;;13.10;5.42;;;;;;;23.17;38.93;99260.52;1693232;81;21636;-35
2021/06/06 02:49:51;;;;;;;12.47;5.42;;;;;;;23.19;39.01;99253.67;1685472;81;21337;-35
2021/06/06 02:52:44;;;;;;;7.72;4.80;;;;;;;23.19;39.02;99261.22;1696446;80;21042;-36
2021/06/06 02:55:19;;;;;;;9.68;5.58;;;;;;;23.20;39.11;99252.69;1716101;80;21031;-36
2021/06/06 02:57:52;;;;;;;11.10;5.25;;;;;;;23.21;39.05;99258.39;1723028;80;21057;-34
2021/06/06 03:00:41;;;;;;;8.97;5.60;;;;;;;23.21;39.05;99265.11;1714681;82;21154;-34
2021/06/06 03:03:21;;;;;;;12.15;5.05;;;;;;;23.22;39.12;99270.84;1708090;82;21743;-35
2021/06/06 03:05:48;;;;;;;11.12;4.65;;;;;;;23.22;39.12;99266.81;1709913;82;21090;-35
2021/06/06 03:08:17;;;;;;;14.00;5.10;;;;;;;23.23;39.12;99271.17;1668058;80;21608;-35
2021/06/06 03:10:46;;;;;;;10.60;5.28;;;;;;;23.24;39.12;99276.91;1743305;80;22428;-35
2021/06/06 03:13:24;;;;;;;7.60;4.85;;;;;;;23.25;39.13;99267.88;1682936;82;21451;-35
2021/06/06 03:15:55;;;;;;;6.80;4.62;;;;;;;23.26;39.13;99271.41;1725130;80;21085;-35
2021/06/06 03:18:28;;;;;;;6.65;4.85;;;;;;;23.27;39.19;99275.80;1752322;80;21101;-35
2021/06/06 03:21:01;;;;;;;10.58;5.53;;;;;;;23.28;39.11;99276.97;1723003;80;21019;-35
2021/06/06 03:23:28;;;;;;;9.98;5.15;;;;;;;23.29;39.16;99278.67;1668715;82;21105;-35
2021/06/06 03:26:00;;;;;;;8.93;4.78;;;;;;;23.31;39.15;99274.52;1734876;80;22323;-35
2021/06/06 03:28:32;;;;;;;11.33;4.85;;;;;;;23.31;39.13;99272.66;1702364;80;21037;-34
2021/06/06 03:31:06;;;;;;;10.28;5.33;;;;;;;23.32;39.14;99274.38;1683644;83;21104;-35
2021/06/06 03:33:52;;;;;;;11.40;4.87;;;;;;;23.34;39.09;99279.09;1731782;80;22176;-35
2021/06/06 03:36:28;;;;;;;10.88;4.42;;;;;;;23.35;39.16;99283.97;1741502;80;21057;-34
2021/06/06 03:38:57;;;;;;;7.33;4.50;;;;;;;23.36;39.12;99283.83;1743051;80;21105;-34
2021/06/06 03:41:25;;;;;;;6.70;4.45;;;;;;;23.37;39.17;99282.02;1743121;80;22186;-35
2021/06/06 03:43:53;;;;;;;5.97;4.80;;;;;;;23.39;39.14;99279.19;1743047;80;21078;-34
2021/06/06 03:46:22;;;;;;;6.53;5.00;;;;;;;23.40;39.19;99275.50;1743064;80;21030;-34
2021/06/06 03:48:49;;;;;;;5.95;4.58;;;;;;;23.42;39.16;99286.94;1714561;80;21037;-35
2021/06/06 03:51:17;;;;;;;7.85;4.08;;;;;;;23.43;39.12;99287.30;1739206;80;21130;-34
2021/06/06 03:53:45;;;;;;;8.03;4.75;;;;;;;23.43;39.11;99284.61;1728272;80;21050;-34
2021/06/06 03:56:12;;;;;;;10.88;4.67;;;;;;;23.44;39.13;99284.48;1737327;80;21224;-34
2021/06/06 03:58:40;;;;;;;5.22;3.92;;;;;;;23.46;39.14;99285.17;1742894;80;21102;-34
2021/06/06 04:01:07;;;;;;;5.95;4.35;;;;;;;23.47;39.10;99280.17;1735651;80;21014;-35
2021/06/06 04:03:34;;;;;;;6.08;4.40;;;;;;;23.48;39.14;99267.59;1753029;80;21120;-34
2021/06/06 04:06:02;;;;;;;7.92;4.92;;;;;;;23.50;39.17;99266.94;1687908;83;21035;-34
2021/06/06 04:08:32;;;;;;;6.35;4.00;;;;;;;23.51;39.08;99254.72;1724857;80;21573;-35
2021/06/06 04:11:00;;;;;;;4.45;4.05;;;;;;;23.53;39.10;99260.78;1705756;83;21026;-35
2021/06/06 04:13:28;;;;;;;7.58;4.47;;;;;;;23.55;39.12;99255.28;1743258;80;22177;-34
2021/06/06 04:15:55;;;;;;;5.40;4.25;;;;;;;23.58;39.04;99261.71;1713652;80;21054;-34
2021/06/06 04:18:25;;;;;;;6.87;4.30;;;;;;;23.60;39.02;99263.75;1712086;81;21193;-35
2021/06/06 04:20:56;;;;;;;5.05;4.03;;;;;;;23.62;38.96;99264.48;1712211;81;21093;-35
2021/06/06 04:23:24;;;;;;;5.70;4.00;;;;;;;23.66;38.92;99265.88;1698094;81;21050;-34
2021/06/06 04:25:52;;;;;;;6.95;4.08;;;;;;;23.67;38.90;99259.52;1689812;83;21060;-35
2021/06/06 04:28:21;;;;;;;4.97;3.85;;;;;;;23.70;38.83;99267.30;1737760;80;21230;-34
2021/06/06 04:30:49;;;;;;;14.05;4.12;;;;;;;23.77;38.83;99267.58;1748377;80;21033;-34
2021/06/06 04:33:16;;;;;;;4.37;3.92;;;;;;;23.80;38.80;99271.80;1710240;80;21031;-35
2021/06/06 04:35:44;;;;;;;6.20;4.30;;;;;;;23.83;38.82;99271.04;1711701;81;21033;-34
2021/06/06 04:38:14;;;;;;;6.25;4.00;;;;;;;23.85;38.79;99266.87;1715319;80;21165;-35
2021/06/06 04:40:43;;;;;;;7.15;3.83;;;;;;;23.87;38.80;99268.44;1747228;80;21141;-34
2021/06/06 04:43:12;;;;;;;5.03;3.90;;;;;;;23.89;38.81;99265.09;1673709;81;21576;-34
2021/06/06 04:45:41;;;;;;;3.77;3.40;;;;;;;23.92;38.74;99273.35;1711596;82;21519;-34
2021/06/06 04:48:20;;;;;;;6.78;4.20;;;;;;;23.94;38.79;99283.48;1720612;81;21508;-34
2021/06/06 04:50:48;;;;;;;5.00;3.60;;;;;;;23.95;38.77;99281.12;1722497;81;21124;-34
2021/06/06 04:53:15;;;;;;;6.67;4.15;;;;;;;23.97;38.76;99283.17;1709269;81;21112;-34
2021/06/06 04:55:44;;;;;;;5.58;3.90;;;;;;;23.98;38.77;99288.06;1711581;81;21033;-34
2021/06/06 04:58:15;;;;;;;5.28;3.70;;;;;;;24.00;38.74;99281.54;1716037;81;21034;-34
2021/06/06 05:00:42;;;;;;;4.10;3.72;;;;;;;24.02;38.71;99279.55;1705301;81;21134;-34
2021/06/06 05:03:12;;;;;;;8.78;3.75;;;;;;;24.05;38.68;99283.30;1721405;81;21047;-34
2021/06/06 05:05:40;;;;;;;3.98;3.58;;;;;;;24.06;38.65;99284.16;1702064;81;21557;-34
2021/06/06 05:08:10;;;;;;;5.92;3.80;;;;;;;24.07;38.60;99277.30;1721653;81;21090;-34
2021/06/06 05:10:39;;;;;;;4.53;3.80;;;;;;;24.09;38.58;99275.30;1721776;81;21130;-34
2021/06/06 05:13:08;;;;;;;3.92;3.52;;;;;;;24.10;38.51;99278.33;1722015;81;21058;-35
2021/06/06 05:15:37;;;;;;;6.65;3.50;;;;;;;24.12;38.52;99278.19;1700876;81;21677;-34
2021/06/06 05:18:06;;;;;;;4.83;3.65;;;;;;;24.15;38.52;99277.06;1721519;81;21015;-35
2021/06/06 05:20:37;;;;;;;4.70;3.77;;;;;;;24.16;38.48;99276.05;1732666;80;21034;-34
2021/06/06 05:23:06;;;;;;;4.22;3.60;;;;;;;24.18;38.46;99287.52;1716476;81;21104;-34
2021/06/06 05:25:34;;;;;;;3.70;3.40;;;;;;;24.19;38.45;99282.48;1734833;80;21745;-35
2021/06/06 05:28:01;;;;;;;5.75;3.70;;;;;;;24.20;38.39;99284.19;1738658;81;21083;-34
2021/06/06 05:30:30;;;;;;;5.03;3.98;;;;;;;24.22;38.35;99284.87;1749032;80;21118;-35
2021/06/06 05:32:57;;;;;;;4.05;3.45;;;;;;;24.24;38.29;99281.06;1731495;80;21026;-34
2021/06/06 05:35:26;;;;;;;4.35;3.52;;;;;;;24.25;38.31;99284.09;1738499;81;21067;-35
2021/06/06 05:37:54;;;;;;;5.50;3.70;;;;;;;24.27;38.30;99284.78;1729738;80;20996;-35
2021/06/06 05:40:27;;;;;;;4.22;3.47;;;;;;;24.30;38.27;99289.03;1750601;80;21077;-35
2021/06/06 05:42:54;;;;;;;5.97;3.37;;;;;;;24.33;38.22;99291.94;1750577;80;21129;-34
2021/06/06 05:45:24;;;;;;;3.90;3.17;;;;;;;24.34;38.20;99291.77;1750266;80;21039;-35
2021/06/06 05:47:51;;;;;;;8.85;3.60;;;;;;;24.36;38.19;99283.08;1750915;81;21109;-35
2021/06/06 05:50:23;;;;;;;3.52;3.00;;;;;;;24.36;38.29;99273.66;1750170;80;21564;-35
2021/06/06 05:52:52;;;;;;;3.42;3.10;;;;;;;24.36;38.51;99276.35;1748144;80;21089;-35
2021/06/06 05:55:20;;;;;;;6.25;3.12;;;;;;;24.35;38.70;99277.34;1757524;80;21749;-35
2021/06/06 05:57:48;;;;;;;5.47;3.00;;;;;;;24.34;38.61;99274.28;1735760;80;21025;-35
2021/06/06 06:00:23;;;;;;;4.00;2.65;;;;;;;24.34;38.38;99275.63;1735248;81;21430;-35
2021/06/06 06:02:50;;;;;;;5.08;3.12;;;;;;;24.34;38.27;99275.63;1711565;82;21081;-35
2021/06/06 06:05:17;;;;;;;4.25;2.98;;;;;;;24.36;38.20;99272.80;1744183;80;21130;-35
2021/06/06 06:07:44;;;;;;;4.00;3.05;;;;;;;24.40;38.16;99276.39;1745173;81;21131;-36
2021/06/06 06:10:14;;;;;;;4.42;3.50;;;;;;;24.44;38.13;99276.47;1742229;81;21004;-35
2021/06/06 06:12:41;;;;;;;6.22;3.25;;;;;;;24.48;38.45;99275.16;1742119;81;21035;-36
2021/06/06 06:15:10;;;;;;;8.55;3.40;;;;;;;24.53;38.51;99273.86;1737268;81;21086;-36
2021/06/06 06:17:36;;;;;;;3.83;3.40;;;;;;;24.54;38.43;99279.09;1745243;81;21051;-35
2021/06/06 06:20:07;;;;;;;10.43;3.45;;;;;;;24.54;38.39;99277.74;1698130;82;21228;-36
2021/06/06 06:22:35;;;;;;;4.33;2.98;;;;;;;24.58;38.21;99281.02;1734495;81;21063;-35
2021/06/06 06:25:06;;;;;;;6.47;3.08;;;;;;;24.60;38.08;99279.05;1733176;81;21487;-35
2021/06/06 06:27:33;;;;;;;4.70;2.85;;;;;;;24.60;37.96;99281.73;1723594;82;21060;-36
2021/06/06 06:30:17;;;;;;;4.62;3.08;;;;;;;24.61;37.86;99282.06;1742834;81;21033;-36
2021/06/06 06:32:44;;;;;;;5.37;2.40;;;;;;;24.63;37.78;99277.41;1721014;80;21132;-35
2021/06/06 06:35:11;;;;;;;3.80;2.60;;;;;;;24.64;37.44;99279.91;1740487;81;21531;-36
2021/06/06 06:37:39;;;;;;;3.40;2.87;;;;;;;24.59;37.50;99275.99;1714347;82;21035;-36
2021/06/06 06:40:08;;;;;;;3.80;2.60;;;;;;;24.53;37.26;99279.23;1714384;82;21446;-35
2021/06/06 06:42:35;;;;;;;4.10;2.60;;;;;;;24.53;37.33;99271.16;1719916;81;21385;-37
2021/06/06 06:45:03;;;;;;;5.55;2.65;;;;;;;24.51;37.08;99271.81;1745432;80;21119;-34
2021/06/06 06:47:30;;;;;;;5.17;2.52;;;;;;;24.47;36.92;99269.92;1717402;81;21022;-35
2021/06/06 06:49:57;;;;;;;2.12;1.92;;;;;;;24.45;36.67;99270.07;1729572;81;21031;-34
2021/06/06 06:52:25;;;;;;;2.45;1.77;;;;;;;24.43;36.42;99272.07;1732754;81;21159;-34
2021/06/06 06:54:52;;;;;;;3.50;2.08;;;;;;;24.36;36.19;99273.66;1739937;81;21106;-34
2021/06/06 06:57:20;;;;;;;5.28;1.75;;;;;;;24.30;36.35;99274.25;1746111;81;21029;-35
2021/06/06 06:59:47;;;;;;;12.50;1.72;;;;;;;24.23;35.87;99273.98;1726440;81;21033;-36
2021/06/06 07:02:13;;;;;;;3.95;1.52;;;;;;;24.17;36.10;99273.72;1750146;81;21016;-38
2021/06/06 07:04:40;;;;;;;59.80;34.08;;;;;;;24.10;36.46;99268.92;1722295;81;21062;-34
2021/06/06 07:07:07;;;;;;;16.27;8.90;;;;;;;24.14;36.79;99274.01;1749201;80;21021;-34
2021/06/06 07:09:34;;;;;;;11.00;5.17;;;;;;;24.16;36.85;99270.67;1758474;80;21215;-34
2021/06/06 07:12:01;;;;;;;10.40;4.45;;;;;;;24.16;36.78;99273.36;1753486;80;21044;-34
2021/06/06 07:14:29;;;;;;;5.42;3.80;;;;;;;24.17;36.88;99265.66;1756505;80;21055;-34
2021/06/06 07:16:56;;;;;;;5.17;2.90;;;;;;;24.21;37.06;99258.98;1758346;80;21039;-36
2021/06/06 07:19:26;;;;;;;6.37;2.75;;;;;;;24.25;37.47;99257.70;1758960;80;21026;-37
2021/06/06 07:21:53;;;;;;;10.38;2.70;;;;;;;24.30;37.58;99260.30;1758019;80;21158;-36
2021/06/06 07:24:20;;;;;;;7.42;2.42;;;;;;;24.36;37.72;99254.84;1751165;80;20988;-36
2021/06/06 07:26:49;;;;;;;5.75;2.42;;;;;;;24.41;37.99;99253.90;1758462;80;21022;-36
2021/06/06 07:29:20;;;;;;;5.28;1.92;;;;;;;24.46;37.96;99254.77;1751572;80;21093;-36
2021/06/06 07:31:48;;;;;;;4.42;1.82;;;;;;;24.50;37.80;99249.97;1753711;80;21089;-36
2021/06/06 07:34:16;;;;;;;6.40;1.72;;;;;;;24.55;38.06;99250.41;1739955;81;21053;-37
2021/06/06 07:36:45;;;;;;;4.95;1.80;;;;;;;24.58;38.13;99255.45;1760178;80;21026;-35
2021/06/06 07:39:12;;;;;;;4.05;1.67;;;;;;;24.62;37.55;99256.87;1756605;80;21488;-35
2021/06/06 07:41:40;;;;;;;4.37;1.60;;;;;;;24.63;37.54;99254.03;1766334;79;21025;-35
2021/06/06 07:44:08;;;;;;;3.98;1.10;;;;;;;24.67;37.63;99262.64;1771099;79;21053;-36
2021/06/06 07:46:35;;;;;;;9.68;1.67;;;;;;;24.69;37.76;99261.98;1760524;80;21529;-36
2021/06/06 07:49:03;;;;;;;3.55;1.30;;;;;;;24.70;37.12;99261.52;1757291;79;21578;-36
2021/06/06 07:51:30;;;;;;;4.92;0.98;;;;;;;24.69;36.85;99264.68;1717949;81;21086;-36
2021/06/06 07:53:58;;;;;;;5.75;1.12;;;;;;;24.69;36.50;99264.68;1759974;80;21611;-35
2021/06/06 07:56:26;;;;;;;2.65;1.27;;;;;;;24.69;36.34;99267.37;1742107;80;21541;-36
2021/06/06 07:58:53;;;;;;;3.27;1.07;;;;;;;24.68;36.65;99269.73;1749375;80;21918;-34
2021/06/06 08:01:21;;;;;;;4.95;1.07;;;;;;;24.68;36.57;99268.39;1735843;81;20927;-37
2021/06/06 08:03:50;;;;;;;8.23;1.05;;;;;;;24.69;36.69;99271.41;1737833;80;21027;-36
2021/06/06 08:06:17;;;;;;;17.27;11.10;;;;;;;24.72;37.09;99263.55;1747072;80;21036;-35
2021/06/06 08:08:43;;;;;;;9.88;6.17;;;;;;;24.74;36.91;99268.27;1641353;85;21069;-36
2021/06/06 08:11:12;;;;;;;30.23;15.78;;;;;;;24.73;36.62;99268.78;1668117;85;21060;-35
2021/06/06 08:13:39;;;;;;;37.38;18.98;;;;;;;24.73;36.57;99272.81;1662746;84;21057;-36
2021/06/06 08:16:08;;;;;;;47.10;25.52;;;;;;;24.72;36.45;99272.45;1700789;82;21789;-37
2021/06/06 08:18:40;;;;;;;32.80;16.20;;;;;;;24.70;36.46;99271.77;1665447;84;21066;-36
2021/06/06 08:21:16;;;;;;;26.50;12.63;;;;;;;24.68;36.50;99277.80;1700061;82;21004;-34
2021/06/06 08:23:45;;;;;;;23.85;10.68;;;;;;;24.71;37.13;99278.82;1696731;82;21137;-35
2021/06/06 08:26:12;;;;;;;21.00;9.48;;;;;;;24.74;37.63;99281.72;1711492;82;20933;-35
2021/06/06 08:28:40;;;;;;;16.62;7.55;;;;;;;24.76;37.83;99277.87;1714123;82;21027;-35
2021/06/06 08:31:12;;;;;;;19.62;8.33;;;;;;;24.81;38.00;99274.27;1696208;83;21596;-35
2021/06/06 08:33:39;;;;;;;22.77;7.97;;;;;;;24.85;38.03;99282.88;1709315;82;21027;-35
2021/06/06 08:36:21;;;;;;;22.48;8.05;;;;;;;24.89;38.09;99282.91;1684708;83;22055;-34
2021/06/06 08:38:51;;;;;;;15.58;7.15;;;;;;;24.94;38.14;99281.95;1704795;83;21108;-34
2021/06/06 08:45:09;;;;;;;11.68;7.30;;;;;;;25.03;38.18;99281.54;1707836;82;21522;-35
2021/06/06 08:47:35;;;;;;;16.45;7.17;;;;;;;25.09;38.05;99276.91;1683849;84;22013;-35
2021/06/06 08:50:08;;;;;;;12.13;6.45;;;;;;;25.13;38.00;99282.83;1702194;82;21138;-34
2021/06/06 08:53:01;;;;;;;16.77;6.95;;;;;;;25.17;37.99;99285.58;1692451;82;21060;-34
2021/06/06 08:56:02;;;;;;;11.78;6.75;;;;;;;25.20;37.93;99286.11;1695802;82;21098;-35
2021/06/06 08:59:14;;;;;;;13.10;6.42;;;;;;;25.24;37.92;99283.13;1719067;80;21054;-35
2021/06/06 09:02:21;;;;;;;15.50;6.30;;;;;;;25.26;37.89;99274.38;1734911;80;21137;-35
2021/06/06 09:04:48;;;;;;;12.95;5.85;;;;;;;25.29;37.87;99284.88;1748381;80;21624;-34
2021/06/06 09:07:21;;;;;;;10.55;5.80;;;;;;;25.32;37.87;99289.97;1748178;80;21051;-34
2021/06/06 09:09:50;;;;;;;7.33;5.10;;;;;;;25.33;37.84;99279.52;1747189;80;21550;-35
2021/06/06 09:12:21;;;;;;;12.53;5.92;;;;;;;25.34;37.82;99271.80;1737755;81;21027;-35
2021/06/06 09:14:50;;;;;;;10.93;5.28;;;;;;;25.37;37.79;99272.84;1743616;80;21062;-35
2021/06/06 09:17:19;;;;;;;9.40;4.40;;;;;;;25.40;38.02;99271.16;1750464;80;21992;-35
2021/06/06 09:19:56;;;;;;;7.00;4.28;;;;;;;25.42;38.17;99267.84;1748028;80;21015;-36
2021/06/06 09:22:40;;;;;;;9.80;5.92;;;;;;;25.42;38.14;99267.84;1758790;80;21561;-35
2021/06/06 09:25:27;;;;;;;8.93;4.17;;;;;;;25.43;38.20;99262.78;1746208;80;20948;-36
2021/06/06 09:28:06;;;;;;;8.45;3.52;;;;;;;25.44;38.12;99263.14;1751883;80;21031;-35
2021/06/06 09:30:36;;;;;;;7.45;3.50;;;;;;;25.42;38.00;99257.06;1745518;80;21071;-35
2021/06/06 09:33:12;;;;;;;5.22;3.15;;;;;;;25.42;38.09;99253.03;1757637;80;21050;-36
2021/06/06 09:35:56;;;;;;;5.62;2.85;;;;;;;25.44;38.08;99250.19;1720956;80;21082;-35
2021/06/06 09:38:39;;;;;;;4.70;2.72;;;;;;;25.46;38.09;99251.70;1731540;81;21023;-35
2021/06/06 09:41:24;;;;;;;5.45;2.80;;;;;;;25.48;37.98;99253.73;1740752;80;21019;-35
2021/06/06 09:44:15;;;;;;;;;;;;;;;25.51;37.85;99249.39;1732328;81;21178;-35
2021/06/06 09:47:08;;;;;;;5.55;2.77;;;;;;;25.55;38.13;99248.09;1753102;80;20199;-35
2021/06/06 09:49:47;;;;;;;6.28;2.72;;;;;;;25.56;37.97;99241.69;1741017;80;21084;-36
2021/06/06 09:52:45;;;;;;;10.05;2.65;;;;;;;25.61;37.95;99247.13;1731287;80;21083;-36
2021/06/06 09:55:28;;;;;;;8.88;2.22;;;;;;;25.62;37.85;99242.06;1724147;81;21098;-37
2021/06/06 09:58:15;;;;;;;6.37;2.35;;;;;;;25.61;37.80;99248.47;1729484;81;22568;-35
2021/06/06 10:00:49;;;;;;;4.35;2.17;;;;;;;25.62;37.64;99241.58;1752482;80;21047;-37
2021/06/06 10:03:27;;;;;;;4.67;2.22;;;;;;;25.67;37.52;99245.13;1722697;80;21088;-36
2021/06/06 10:05:57;;;;;;;5.60;2.33;;;;;;;25.68;37.53;99241.44;1726148;80;21565;-36
2021/06/06 10:08:28;;;;;;;2.92;2.00;;;;;;;25.73;37.42;99245.86;1735529;80;21080;-36
2021/06/06 10:11:11;;;;;;;5.92;2.35;;;;;;;25.74;37.32;99243.00;1735235;80;21053;-36
2021/06/06 10:13:42;;;;;;;6.12;2.02;;;;;;;25.79;37.22;99241.20;1732541;80;21054;-36
2021/06/06 10:16:21;;;;;;;4.58;2.15;;;;;;;25.82;37.37;99242.20;1736702;80;21039;-36
2021/06/06 10:19:18;;;;;;;4.67;2.33;;;;;;;25.86;37.33;99241.41;1763168;80;21067;-36
2021/06/06 10:21:47;;;;;;;3.15;1.95;;;;;;;25.89;37.32;99233.84;1737283;80;21050;-36
2021/06/06 10:24:24;;;;;;;3.62;2.10;;;;;;;25.92;37.14;99234.88;1761519;80;21891;-36
2021/06/06 10:26:54;;;;;;;7.03;2.12;;;;;;;25.95;37.18;99231.87;1734346;80;21047;-36
2021/06/06 10:29:34;;;;;;;5.28;2.12;;;;;;;25.99;37.16;99228.87;1746252;80;21540;-36
2021/06/06 10:32:27;;;;;;;6.03;2.40;;;;;;;26.00;37.05;99234.10;1726439;82;21059;-37
2021/06/06 10:35:05;;;;;;;7.65;2.62;;;;;;;26.02;37.17;99218.61;1748328;80;21070;-36
2021/06/06 10:37:32;;;;;;;4.92;2.45;;;;;;;26.04;37.02;99215.75;1723171;81;21201;-36
2021/06/06 10:40:12;;;;;;;5.45;2.12;;;;;;;26.08;37.19;99217.14;1750114;80;21070;-34
2021/06/06 10:42:44;;;;;;;2.95;2.20;;;;;;;26.10;37.49;99211.08;1751294;80;21035;-39
2021/06/06 10:45:41;;;;;;;5.72;2.37;;;;;;;26.11;37.64;99212.78;1752368;80;22251;-36
2021/06/06 10:48:28;;;;;;;2.92;2.15;;;;;;;26.14;37.31;99207.04;1761488;80;21652;-35
2021/06/06 10:51:18;;;;;;;4.03;2.02;;;;;;;26.18;37.16;99204.38;1750509;80;22382;-35
2021/06/06 10:53:57;;;;;;;9.38;2.98;;;;;;;26.22;36.99;99196.30;1713474;81;21055;-35
2021/06/06 10:56:47;;;;;;;9.13;2.70;;;;;;;26.27;36.80;99195.82;1733346;81;21095;-35
2021/06/06 10:59:14;;;;;;;6.22;2.80;;;;;;;26.28;36.66;99182.69;1752580;80;21011;-35
2021/06/06 11:01:53;;;;;;;7.62;3.05;;;;;;;26.29;36.51;99186.58;1751001;80;21003;-35
2021/06/06 11:04:29;;;;;;;5.85;2.37;;;;;;;26.31;36.27;99185.91;1744457;81;21611;-34
2021/06/06 11:07:09;;;;;;;8.38;2.55;;;;;;;26.32;36.10;99181.34;1752953;80;21042;-34
2021/06/06 11:09:39;;;;;;;1.95;1.80;;;;;;;26.32;36.01;99179.48;1752141;80;21090;-34
2021/06/06 11:12:12;;;;;;;3.02;1.70;;;;;;;26.33;35.88;99173.09;1773163;80;21055;-34
2021/06/06 11:14:49;;;;;;;3.08;2.00;;;;;;;26.34;35.68;99175.27;1760721;80;21552;-36
2021/06/06 11:17:31;;;;;;;6.65;2.15;;;;;;;26.32;35.48;99173.25;1740789;80;21565;-35
2021/06/06 11:20:19;;;;;;;6.00;1.92;;;;;;;26.30;35.17;99168.02;1752095;80;21548;-36
2021/06/06 11:22:47;;;;;;;9.28;2.87;;;;;;;26.25;34.55;99170.36;1715859;81;21109;-34
2021/06/06 11:25:48;;;;;;;3.17;2.87;;;;;;;26.18;34.33;99168.49;1728314;80;21105;-35
2021/06/06 11:28:35;;;;;;;8.15;5.40;;;;;;;26.11;34.28;99161.05;1708060;83;21087;-35
2021/06/06 11:31:06;;;;;;;4.58;2.77;;;;;;;26.09;34.32;99165.75;1752732;80;21132;-35
2021/06/06 11:33:42;;;;;;;5.75;3.85;;;;;;;26.05;33.84;99156.28;1749177;81;21517;-35
2021/06/06 11:36:09;;;;;;;8.70;3.42;;;;;;;26.00;33.63;99165.36;1758006;80;21548;-35
2021/06/06 11:38:43;;;;;;;6.42;3.20;;;;;;;25.95;33.43;99161.80;1726271;81;21604;-35
2021/06/06 11:41:34;;;;;;;4.95;2.77;;;;;;;25.91;33.28;99161.75;1772832;80;22038;-34
2021/06/06 11:44:12;;;;;;;6.22;2.27;;;;;;;25.91;33.51;99155.53;1751308;80;21060;-34
2021/06/06 11:46:58;;;;;;;4.05;2.77;;;;;;;25.95;33.70;99145.62;1767155;79;21062;-34
2021/06/06 11:49:34;;;;;;;4.12;2.42;;;;;;;26.01;34.00;99148.67;1714568;80;21912;-34
2021/06/06 11:52:24;;;;;;;3.50;1.90;;;;;;;26.07;34.01;99143.99;1760606;80;22256;-34
2021/06/06 11:54:55;;;;;;;4.85;1.98;;;;;;;26.09;33.46;99144.67;1738235;80;21093;-33
2021/06/06 11:57:32;;;;;;;4.28;1.90;;;;;;;26.06;32.93;99136.42;1732062;81;22846;-36
2021/06/06 12:00:13;;;;;;;3.50;2.02;;;;;;;26.05;32.62;99143.31;1748977;80;21031;-34
2021/06/06 12:02:41;;;;;;;6.67;1.62;;;;;;;26.00;32.31;99135.70;1737507;81;21680;-34
2021/06/06 12:05:16;;;;;;;4.60;1.57;;;;;;;25.99;32.29;99135.86;1722965;81;21651;-35